sensor_id;sensor_type;location;lat;lon;timestamp;temperature;humidity
25214;DHT22;13160;51.834;4.706;2023-04-26T00:00:05;6.80;99.90
25214;DHT22;13160;51.834;4.706;2023-04-26T00:02:35;6.80;99.90
25214;DHT22;13160;51.834;4.706;2023-04-26T00:05:05;6.80;99.90
25214;DHT22;13160;51.834;4.706;2023-04-26T00:07:36;6.80;99.90
25214;DHT22;13160;51.834;4.706;2023-04-26T00:10:05;6.80;99.90
25214;DHT22;13160;51.834;4.706;2023-04-26T00:12:35;6.70;99.90
25214;DHT22;13160;51.834;4.706;2023-04-26T00:15:04;6.70;99.90
25214;DHT22;13160;51.834;4.706;2023-04-26T00:17:33;6.70;99.90
25214;DHT22;13160;51.834;4.706;2023-04-26T00:20:02;6.70;99.90
25214;DHT22;13160;51.834;4.706;2023-04-26T00:22:34;6.70;99.90
25214;DHT22;13160;51.834;4.706;2023-04-26T00:25:05;6.70;99.90
25214;DHT22;13160;51.834;4.706;2023-04-26T00:27:33;6.60;99.90
25214;DHT22;13160;51.834;4.706;2023-04-26T00:30:02;6.60;99.90
25214;DHT22;13160;51.834;4.706;2023-04-26T00:32:31;6.60;99.90
25214;DHT22;13160;51.834;4.706;2023-04-26T00:35:02;6.50;99.90
25214;DHT22;13160;51.834;4.706;2023-04-26T00:37:31;6.50;99.90
25214;DHT22;13160;51.834;4.706;2023-04-26T00:39:59;6.50;99.90
25214;DHT22;13160;51.834;4.706;2023-04-26T00:42:29;6.50;99.90
25214;DHT22;13160;51.834;4.706;2023-04-26T00:44:57;6.50;99.90
25214;DHT22;13160;51.834;4.706;2023-04-26T00:47:28;6.50;99.90
25214;DHT22;13160;51.834;4.706;2023-04-26T00:49:58;6.50;99.90
25214;DHT22;13160;51.834;4.706;2023-04-26T00:52:27;6.50;99.90
25214;DHT22;13160;51.834;4.706;2023-04-26T00:54:56;6.50;99.90
25214;DHT22;13160;51.834;4.706;2023-04-26T00:57:25;6.60;99.90
25214;DHT22;13160;51.834;4.706;2023-04-26T00:59:55;6.60;99.90
25214;DHT22;13160;51.834;4.706;2023-04-26T01:02:23;6.60;99.90
25214;DHT22;13160;51.834;4.706;2023-04-26T01:04:52;6.60;99.90
25214;DHT22;13160;51.834;4.706;2023-04-26T01:07:21;6.60;99.90
25214;DHT22;13160;51.834;4.706;2023-04-26T01:09:50;6.60;99.90
25214;DHT22;13160;51.834;4.706;2023-04-26T01:12:19;6.60;99.90
25214;DHT22;13160;51.834;4.706;2023-04-26T01:14:49;6.60;99.90
25214;DHT22;13160;51.834;4.706;2023-04-26T01:17:18;6.60;99.90
25214;DHT22;13160;51.834;4.706;2023-04-26T01:19:47;6.50;99.90
25214;DHT22;13160;51.834;4.706;2023-04-26T01:22:15;6.50;99.90
25214;DHT22;13160;51.834;4.706;2023-04-26T01:24:49;6.50;99.90
25214;DHT22;13160;51.834;4.706;2023-04-26T01:27:18;6.50;99.90
25214;DHT22;13160;51.834;4.706;2023-04-26T01:29:47;6.40;99.90
25214;DHT22;13160;51.834;4.706;2023-04-26T01:32:15;6.40;99.90
25214;DHT22;13160;51.834;4.706;2023-04-26T01:34:43;6.30;99.90
25214;DHT22;13160;51.834;4.706;2023-04-26T01:37:12;6.30;99.90
25214;DHT22;13160;51.834;4.706;2023-04-26T01:39:44;6.30;99.90
25214;DHT22;13160;51.834;4.706;2023-04-26T01:42:13;6.20;99.90
25214;DHT22;13160;51.834;4.706;2023-04-26T01:44:41;6.10;99.90
25214;DHT22;13160;51.834;4.706;2023-04-26T01:47:10;6.10;99.90
25214;DHT22;13160;51.834;4.706;2023-04-26T01:49:38;6.00;99.90
25214;DHT22;13160;51.834;4.706;2023-04-26T01:52:07;6.00;99.90
25214;DHT22;13160;51.834;4.706;2023-04-26T01:54:35;6.00;99.90
25214;DHT22;13160;51.834;4.706;2023-04-26T01:57:05;5.90;99.90
25214;DHT22;13160;51.834;4.706;2023-04-26T01:59:33;5.90;99.90
25214;DHT22;13160;51.834;4.706;2023-04-26T02:02:02;5.80;99.90
25214;DHT22;13160;51.834;4.706;2023-04-26T02:04:31;5.80;99.90
25214;DHT22;13160;51.834;4.706;2023-04-26T02:06:59;5.80;99.90
25214;DHT22;13160;51.834;4.706;2023-04-26T02:09:28;5.80;99.90
25214;DHT22;13160;51.834;4.706;2023-04-26T02:11:56;5.80;99.90
25214;DHT22;13160;51.834;4.706;2023-04-26T02:14:26;5.70;99.90
25214;DHT22;13160;51.834;4.706;2023-04-26T02:16:54;5.70;99.90
25214;DHT22;13160;51.834;4.706;2023-04-26T02:19:23;5.70;99.90
25214;DHT22;13160;51.834;4.706;2023-04-26T02:21:55;5.70;99.90
25214;DHT22;13160;51.834;4.706;2023-04-26T02:24:24;5.70;99.90
25214;DHT22;13160;51.834;4.706;2023-04-26T02:26:53;5.60;99.90
25214;DHT22;13160;51.834;4.706;2023-04-26T02:29:22;5.60;99.90
25214;DHT22;13160;51.834;4.706;2023-04-26T02:32:10;5.60;99.90
25214;DHT22;13160;51.834;4.706;2023-04-26T02:34:38;5.60;99.90
25214;DHT22;13160;51.834;4.706;2023-04-26T02:37:07;5.50;99.90
25214;DHT22;13160;51.834;4.706;2023-04-26T02:39:35;5.50;99.90
25214;DHT22;13160;51.834;4.706;2023-04-26T02:42:07;5.40;99.90
25214;DHT22;13160;51.834;4.706;2023-04-26T02:44:36;5.30;99.90
25214;DHT22;13160;51.834;4.706;2023-04-26T02:47:05;5.30;99.90
25214;DHT22;13160;51.834;4.706;2023-04-26T02:49:36;5.30;99.90
25214;DHT22;13160;51.834;4.706;2023-04-26T02:52:04;5.20;99.90
25214;DHT22;13160;51.834;4.706;2023-04-26T02:54:33;5.20;99.90
25214;DHT22;13160;51.834;4.706;2023-04-26T02:57:01;5.20;99.90
25214;DHT22;13160;51.834;4.706;2023-04-26T02:59:29;5.20;99.90
25214;DHT22;13160;51.834;4.706;2023-04-26T03:01:58;5.20;99.90
25214;DHT22;13160;51.834;4.706;2023-04-26T03:04:26;5.10;99.90
25214;DHT22;13160;51.834;4.706;2023-04-26T03:06:57;5.10;99.90
25214;DHT22;13160;51.834;4.706;2023-04-26T03:09:25;5.10;99.90
25214;DHT22;13160;51.834;4.706;2023-04-26T03:11:54;5.10;99.90
25214;DHT22;13160;51.834;4.706;2023-04-26T03:14:22;5.10;99.90
25214;DHT22;13160;51.834;4.706;2023-04-26T03:16:51;5.00;99.90
25214;DHT22;13160;51.834;4.706;2023-04-26T03:19:19;5.00;99.90
25214;DHT22;13160;51.834;4.706;2023-04-26T03:21:47;5.00;99.90
25214;DHT22;13160;51.834;4.706;2023-04-26T03:24:17;5.00;99.90
25214;DHT22;13160;51.834;4.706;2023-04-26T03:26:46;5.00;99.90
25214;DHT22;13160;51.834;4.706;2023-04-26T03:29:16;5.10;99.90
25214;DHT22;13160;51.834;4.706;2023-04-26T03:31:44;5.10;99.90
25214;DHT22;13160;51.834;4.706;2023-04-26T03:34:16;5.10;99.90
25214;DHT22;13160;51.834;4.706;2023-04-26T03:36:44;5.10;99.90
25214;DHT22;13160;51.834;4.706;2023-04-26T03:39:12;5.10;99.90
25214;DHT22;13160;51.834;4.706;2023-04-26T03:41:44;5.10;99.90
25214;DHT22;13160;51.834;4.706;2023-04-26T03:44:14;5.10;99.90
25214;DHT22;13160;51.834;4.706;2023-04-26T03:46:43;5.10;99.90
25214;DHT22;13160;51.834;4.706;2023-04-26T03:49:11;5.00;99.90
25214;DHT22;13160;51.834;4.706;2023-04-26T03:51:39;5.00;99.90
25214;DHT22;13160;51.834;4.706;2023-04-26T03:54:08;5.00;99.90
25214;DHT22;13160;51.834;4.706;2023-04-26T03:56:36;5.00;99.90
25214;DHT22;13160;51.834;4.706;2023-04-26T03:59:07;5.00;99.90
25214;DHT22;13160;51.834;4.706;2023-04-26T04:01:36;5.00;99.90
25214;DHT22;13160;51.834;4.706;2023-04-26T04:04:04;5.00;99.90
25214;DHT22;13160;51.834;4.706;2023-04-26T04:06:33;4.90;99.90
25214;DHT22;13160;51.834;4.706;2023-04-26T04:09:01;4.90;99.90
25214;DHT22;13160;51.834;4.706;2023-04-26T04:11:31;5.00;99.90
25214;DHT22;13160;51.834;4.706;2023-04-26T04:14:00;4.90;99.90
25214;DHT22;13160;51.834;4.706;2023-04-26T04:16:30;4.90;99.90
25214;DHT22;13160;51.834;4.706;2023-04-26T04:18:58;4.90;99.90
25214;DHT22;13160;51.834;4.706;2023-04-26T04:21:26;5.00;99.90
25214;DHT22;13160;51.834;4.706;2023-04-26T04:23:55;5.00;99.90
25214;DHT22;13160;51.834;4.706;2023-04-26T04:26:23;5.00;99.90
25214;DHT22;13160;51.834;4.706;2023-04-26T04:28:52;5.10;99.90
25214;DHT22;13160;51.834;4.706;2023-04-26T04:31:21;5.10;99.90
25214;DHT22;13160;51.834;4.706;2023-04-26T04:33:50;5.10;99.90
25214;DHT22;13160;51.834;4.706;2023-04-26T04:36:19;5.10;99.90
25214;DHT22;13160;51.834;4.706;2023-04-26T04:38:47;5.20;99.90
25214;DHT22;13160;51.834;4.706;2023-04-26T04:41:16;5.20;99.90
25214;DHT22;13160;51.834;4.706;2023-04-26T04:43:46;5.30;99.90
25214;DHT22;13160;51.834;4.706;2023-04-26T04:46:14;5.30;99.90
25214;DHT22;13160;51.834;4.706;2023-04-26T04:48:43;5.40;99.90
25214;DHT22;13160;51.834;4.706;2023-04-26T04:51:12;5.30;99.90
25214;DHT22;13160;51.834;4.706;2023-04-26T04:53:41;5.30;99.90
25214;DHT22;13160;51.834;4.706;2023-04-26T04:56:09;5.40;99.90
25214;DHT22;13160;51.834;4.706;2023-04-26T04:58:37;5.40;99.90
25214;DHT22;13160;51.834;4.706;2023-04-26T05:01:06;5.40;99.90
25214;DHT22;13160;51.834;4.706;2023-04-26T05:03:34;5.40;99.90
25214;DHT22;13160;51.834;4.706;2023-04-26T05:06:03;5.40;99.90
25214;DHT22;13160;51.834;4.706;2023-04-26T05:08:34;5.40;99.90
25214;DHT22;13160;51.834;4.706;2023-04-26T05:11:02;5.40;99.90
25214;DHT22;13160;51.834;4.706;2023-04-26T05:13:30;5.40;99.90
25214;DHT22;13160;51.834;4.706;2023-04-26T05:15:59;5.50;99.90
25214;DHT22;13160;51.834;4.706;2023-04-26T05:18:27;5.50;99.90
25214;DHT22;13160;51.834;4.706;2023-04-26T05:20:56;5.50;99.90
25214;DHT22;13160;51.834;4.706;2023-04-26T05:23:25;5.60;99.90
25214;DHT22;13160;51.834;4.706;2023-04-26T05:25:55;5.60;99.90
25214;DHT22;13160;51.834;4.706;2023-04-26T05:28:23;5.70;99.90
25214;DHT22;13160;51.834;4.706;2023-04-26T05:30:53;5.70;99.90
25214;DHT22;13160;51.834;4.706;2023-04-26T05:33:21;5.80;99.90
25214;DHT22;13160;51.834;4.706;2023-04-26T05:35:50;5.90;99.90
25214;DHT22;13160;51.834;4.706;2023-04-26T05:38:19;6.00;99.90
25214;DHT22;13160;51.834;4.706;2023-04-26T05:40:48;6.10;99.90
25214;DHT22;13160;51.834;4.706;2023-04-26T05:43:18;6.20;99.90
25214;DHT22;13160;51.834;4.706;2023-04-26T05:45:50;6.30;99.90
25214;DHT22;13160;51.834;4.706;2023-04-26T05:48:20;6.40;99.90
25214;DHT22;13160;51.834;4.706;2023-04-26T05:50:49;6.50;99.90
25214;DHT22;13160;51.834;4.706;2023-04-26T05:53:18;6.60;99.90
25214;DHT22;13160;51.834;4.706;2023-04-26T05:55:47;6.70;99.90
25214;DHT22;13160;51.834;4.706;2023-04-26T05:58:17;6.80;99.90
25214;DHT22;13160;51.834;4.706;2023-04-26T06:00:45;6.80;99.90
25214;DHT22;13160;51.834;4.706;2023-04-26T06:03:14;6.90;99.90
25214;DHT22;13160;51.834;4.706;2023-04-26T06:05:43;7.00;99.90
25214;DHT22;13160;51.834;4.706;2023-04-26T06:08:14;7.10;99.90
25214;DHT22;13160;51.834;4.706;2023-04-26T06:10:43;7.10;99.90
25214;DHT22;13160;51.834;4.706;2023-04-26T06:13:12;7.20;99.90
25214;DHT22;13160;51.834;4.706;2023-04-26T06:15:42;7.20;99.90
25214;DHT22;13160;51.834;4.706;2023-04-26T06:18:11;7.30;99.90
25214;DHT22;13160;51.834;4.706;2023-04-26T06:20:39;7.40;99.90
25214;DHT22;13160;51.834;4.706;2023-04-26T06:23:08;7.50;99.90
25214;DHT22;13160;51.834;4.706;2023-04-26T06:25:36;7.50;99.90
25214;DHT22;13160;51.834;4.706;2023-04-26T06:28:10;7.60;99.90
25214;DHT22;13160;51.834;4.706;2023-04-26T06:30:39;7.70;99.90
25214;DHT22;13160;51.834;4.706;2023-04-26T06:33:09;7.70;99.90
25214;DHT22;13160;51.834;4.706;2023-04-26T06:35:39;7.80;99.90
25214;DHT22;13160;51.834;4.706;2023-04-26T06:38:09;7.90;99.90
25214;DHT22;13160;51.834;4.706;2023-04-26T06:40:38;8.00;99.90
25214;DHT22;13160;51.834;4.706;2023-04-26T06:43:07;8.00;99.90
25214;DHT22;13160;51.834;4.706;2023-04-26T06:45:35;8.10;99.90
25214;DHT22;13160;51.834;4.706;2023-04-26T06:48:04;8.20;99.90
25214;DHT22;13160;51.834;4.706;2023-04-26T06:50:36;8.30;99.90
25214;DHT22;13160;51.834;4.706;2023-04-26T06:53:06;8.30;99.90
25214;DHT22;13160;51.834;4.706;2023-04-26T06:55:34;8.40;99.90
25214;DHT22;13160;51.834;4.706;2023-04-26T06:58:02;8.40;99.90
25214;DHT22;13160;51.834;4.706;2023-04-26T07:00:31;8.50;99.90
25214;DHT22;13160;51.834;4.706;2023-04-26T07:03:00;8.70;99.90
25214;DHT22;13160;51.834;4.706;2023-04-26T07:05:28;8.90;99.90
25214;DHT22;13160;51.834;4.706;2023-04-26T07:07:58;9.10;99.90
25214;DHT22;13160;51.834;4.706;2023-04-26T07:10:27;9.30;99.90
25214;DHT22;13160;51.834;4.706;2023-04-26T07:12:56;9.30;99.90
25214;DHT22;13160;51.834;4.706;2023-04-26T07:15:24;9.40;99.90
25214;DHT22;13160;51.834;4.706;2023-04-26T07:17:53;9.50;99.90
25214;DHT22;13160;51.834;4.706;2023-04-26T07:20:21;9.50;99.90
25214;DHT22;13160;51.834;4.706;2023-04-26T07:22:50;9.50;99.90
25214;DHT22;13160;51.834;4.706;2023-04-26T07:25:19;9.60;99.90
25214;DHT22;13160;51.834;4.706;2023-04-26T07:27:48;9.60;99.90
25214;DHT22;13160;51.834;4.706;2023-04-26T07:30:17;9.70;99.90
25214;DHT22;13160;51.834;4.706;2023-04-26T07:32:49;9.80;99.90
25214;DHT22;13160;51.834;4.706;2023-04-26T07:35:19;9.90;99.90
25214;DHT22;13160;51.834;4.706;2023-04-26T07:37:47;10.00;99.90
25214;DHT22;13160;51.834;4.706;2023-04-26T07:40:16;10.10;99.90
25214;DHT22;13160;51.834;4.706;2023-04-26T07:42:46;10.40;99.90
25214;DHT22;13160;51.834;4.706;2023-04-26T07:45:14;10.60;99.90
25214;DHT22;13160;51.834;4.706;2023-04-26T07:47:43;10.90;99.90
25214;DHT22;13160;51.834;4.706;2023-04-26T07:50:12;11.00;99.90
25214;DHT22;13160;51.834;4.706;2023-04-26T07:52:41;11.00;99.90
25214;DHT22;13160;51.834;4.706;2023-04-26T07:55:10;10.90;99.90
25214;DHT22;13160;51.834;4.706;2023-04-26T07:57:38;10.80;99.90
25214;DHT22;13160;51.834;4.706;2023-04-26T08:00:10;10.80;99.90
25214;DHT22;13160;51.834;4.706;2023-04-26T08:02:39;10.80;99.90
25214;DHT22;13160;51.834;4.706;2023-04-26T08:05:11;10.90;99.90
25214;DHT22;13160;51.834;4.706;2023-04-26T08:07:40;10.90;99.90
25214;DHT22;13160;51.834;4.706;2023-04-26T08:10:10;10.90;99.90
25214;DHT22;13160;51.834;4.706;2023-04-26T08:12:38;10.90;99.90
25214;DHT22;13160;51.834;4.706;2023-04-26T08:15:10;11.00;99.90
25214;DHT22;13160;51.834;4.706;2023-04-26T08:17:39;11.00;99.90
25214;DHT22;13160;51.834;4.706;2023-04-26T08:20:08;11.00;99.90
25214;DHT22;13160;51.834;4.706;2023-04-26T08:22:37;11.00;99.90
25214;DHT22;13160;51.834;4.706;2023-04-26T08:25:08;11.10;99.90
25214;DHT22;13160;51.834;4.706;2023-04-26T08:27:37;11.30;99.90
25214;DHT22;13160;51.834;4.706;2023-04-26T08:30:06;11.40;99.30
25214;DHT22;13160;51.834;4.706;2023-04-26T08:32:36;11.50;98.60
25214;DHT22;13160;51.834;4.706;2023-04-26T08:35:05;11.60;98.20
25214;DHT22;13160;51.834;4.706;2023-04-26T08:37:35;11.60;97.40
25214;DHT22;13160;51.834;4.706;2023-04-26T08:40:05;11.60;97.50
25214;DHT22;13160;51.834;4.706;2023-04-26T08:42:39;11.50;97.30
25214;DHT22;13160;51.834;4.706;2023-04-26T08:45:10;11.40;96.90
25214;DHT22;13160;51.834;4.706;2023-04-26T08:47:43;11.30;96.50
25214;DHT22;13160;51.834;4.706;2023-04-26T08:50:17;11.20;96.30
25214;DHT22;13160;51.834;4.706;2023-04-26T08:52:48;11.20;95.80
25214;DHT22;13160;51.834;4.706;2023-04-26T08:55:18;11.10;95.60
25214;DHT22;13160;51.834;4.706;2023-04-26T08:57:48;11.10;95.70
25214;DHT22;13160;51.834;4.706;2023-04-26T09:00:17;11.10;95.80
25214;DHT22;13160;51.834;4.706;2023-04-26T09:02:49;11.00;95.40
25214;DHT22;13160;51.834;4.706;2023-04-26T09:05:19;11.00;95.70
25214;DHT22;13160;51.834;4.706;2023-04-26T09:07:50;10.90;95.60
25214;DHT22;13160;51.834;4.706;2023-04-26T09:10:21;10.90;95.90
25214;DHT22;13160;51.834;4.706;2023-04-26T09:12:51;10.80;96.10
25214;DHT22;13160;51.834;4.706;2023-04-26T09:15:20;10.80;96.90
25214;DHT22;13160;51.834;4.706;2023-04-26T09:17:51;10.70;97.50
25214;DHT22;13160;51.834;4.706;2023-04-26T09:20:22;10.70;98.20
25214;DHT22;13160;51.834;4.706;2023-04-26T09:22:52;10.60;98.70
25214;DHT22;13160;51.834;4.706;2023-04-26T09:25:27;10.60;99.00
25214;DHT22;13160;51.834;4.706;2023-04-26T09:27:57;10.60;99.20
25214;DHT22;13160;51.834;4.706;2023-04-26T09:30:27;10.60;99.20
25214;DHT22;13160;51.834;4.706;2023-04-26T09:32:58;10.60;98.90
25214;DHT22;13160;51.834;4.706;2023-04-26T09:35:31;10.60;98.70
25214;DHT22;13160;51.834;4.706;2023-04-26T09:38:01;10.60;98.50
25214;DHT22;13160;51.834;4.706;2023-04-26T09:40:39;10.60;98.60
25214;DHT22;13160;51.834;4.706;2023-04-26T09:43:10;10.70;98.60
25214;DHT22;13160;51.834;4.706;2023-04-26T09:45:45;10.70;98.20
25214;DHT22;13160;51.834;4.706;2023-04-26T09:48:19;10.80;98.00
25214;DHT22;13160;51.834;4.706;2023-04-26T09:50:50;10.90;97.70
25214;DHT22;13160;51.834;4.706;2023-04-26T09:53:28;11.00;97.50
25214;DHT22;13160;51.834;4.706;2023-04-26T09:56:05;11.10;97.30
25214;DHT22;13160;51.834;4.706;2023-04-26T09:58:37;11.20;96.50
25214;DHT22;13160;51.834;4.706;2023-04-26T10:01:07;11.20;96.70
25214;DHT22;13160;51.834;4.706;2023-04-26T10:03:39;11.30;96.60
25214;DHT22;13160;51.834;4.706;2023-04-26T10:06:09;11.40;95.70
25214;DHT22;13160;51.834;4.706;2023-04-26T10:08:39;11.40;95.20
25214;DHT22;13160;51.834;4.706;2023-04-26T10:11:08;11.40;95.40
25214;DHT22;13160;51.834;4.706;2023-04-26T10:13:37;11.50;95.30
25214;DHT22;13160;51.834;4.706;2023-04-26T10:16:08;11.60;95.10
25214;DHT22;13160;51.834;4.706;2023-04-26T10:18:36;11.60;94.10
25214;DHT22;13160;51.834;4.706;2023-04-26T10:21:10;11.60;94.50
25214;DHT22;13160;51.834;4.706;2023-04-26T10:23:47;11.70;94.40
25214;DHT22;13160;51.834;4.706;2023-04-26T10:26:46;11.80;93.80
25214;DHT22;13160;51.834;4.706;2023-04-26T10:29:16;11.80;93.40
25214;DHT22;13160;51.834;4.706;2023-04-26T10:32:06;11.80;93.20
25214;DHT22;13160;51.834;4.706;2023-04-26T10:34:37;11.90;93.10
25214;DHT22;13160;51.834;4.706;2023-04-26T10:37:09;11.90;93.10
25214;DHT22;13160;51.834;4.706;2023-04-26T10:39:38;12.00;93.10
25214;DHT22;13160;51.834;4.706;2023-04-26T10:42:20;12.00;93.00
25214;DHT22;13160;51.834;4.706;2023-04-26T10:44:54;12.10;92.90
25214;DHT22;13160;51.834;4.706;2023-04-26T10:47:29;12.20;92.70
25214;DHT22;13160;51.834;4.706;2023-04-26T10:50:02;12.20;92.60
25214;DHT22;13160;51.834;4.706;2023-04-26T10:52:38;12.20;92.20
25214;DHT22;13160;51.834;4.706;2023-04-26T10:55:39;12.30;92.50
25214;DHT22;13160;51.834;4.706;2023-04-26T10:58:24;12.40;91.50
25214;DHT22;13160;51.834;4.706;2023-04-26T11:01:05;12.50;91.00
25214;DHT22;13160;51.834;4.706;2023-04-26T11:03:36;12.60;91.20
25214;DHT22;13160;51.834;4.706;2023-04-26T11:06:05;12.70;91.20
25214;DHT22;13160;51.834;4.706;2023-04-26T11:08:37;12.80;91.30
25214;DHT22;13160;51.834;4.706;2023-04-26T11:11:06;12.80;91.50
25214;DHT22;13160;51.834;4.706;2023-04-26T11:13:36;12.80;91.70
25214;DHT22;13160;51.834;4.706;2023-04-26T11:16:07;12.80;91.80
25214;DHT22;13160;51.834;4.706;2023-04-26T11:18:39;12.70;91.90
25214;DHT22;13160;51.834;4.706;2023-04-26T11:21:09;12.70;91.80
25214;DHT22;13160;51.834;4.706;2023-04-26T11:23:40;12.70;91.90
25214;DHT22;13160;51.834;4.706;2023-04-26T11:26:08;12.60;92.00
25214;DHT22;13160;51.834;4.706;2023-04-26T11:28:38;12.70;91.90
25214;DHT22;13160;51.834;4.706;2023-04-26T11:31:06;12.70;91.50
25214;DHT22;13160;51.834;4.706;2023-04-26T11:33:35;12.70;91.50
25214;DHT22;13160;51.834;4.706;2023-04-26T11:36:04;12.70;91.50
25214;DHT22;13160;51.834;4.706;2023-04-26T11:38:33;12.70;91.20
25214;DHT22;13160;51.834;4.706;2023-04-26T11:41:03;12.70;91.40
25214;DHT22;13160;51.834;4.706;2023-04-26T11:43:35;12.80;91.30
25214;DHT22;13160;51.834;4.706;2023-04-26T11:46:05;12.80;91.20
25214;DHT22;13160;51.834;4.706;2023-04-26T11:48:36;12.80;91.20
25214;DHT22;13160;51.834;4.706;2023-04-26T11:51:07;12.80;90.90
25214;DHT22;13160;51.834;4.706;2023-04-26T11:53:36;12.80;90.70
25214;DHT22;13160;51.834;4.706;2023-04-26T11:56:17;12.80;90.80
25214;DHT22;13160;51.834;4.706;2023-04-26T11:58:49;12.90;90.60
25214;DHT22;13160;51.834;4.706;2023-04-26T12:01:23;12.90;90.80
25214;DHT22;13160;51.834;4.706;2023-04-26T12:03:54;13.10;90.70
25214;DHT22;13160;51.834;4.706;2023-04-26T12:06:31;13.20;90.60
25214;DHT22;13160;51.834;4.706;2023-04-26T12:09:08;13.40;90.50
25214;DHT22;13160;51.834;4.706;2023-04-26T12:11:39;13.50;90.20
25214;DHT22;13160;51.834;4.706;2023-04-26T12:14:08;13.60;88.90
25214;DHT22;13160;51.834;4.706;2023-04-26T12:16:37;13.70;87.70
25214;DHT22;13160;51.834;4.706;2023-04-26T12:19:06;13.70;86.70
25214;DHT22;13160;51.834;4.706;2023-04-26T12:21:39;13.80;85.70
25214;DHT22;13160;51.834;4.706;2023-04-26T12:24:22;13.80;85.80
25214;DHT22;13160;51.834;4.706;2023-04-26T12:26:53;13.90;85.30
25214;DHT22;13160;51.834;4.706;2023-04-26T12:29:21;14.00;84.50
25214;DHT22;13160;51.834;4.706;2023-04-26T12:31:50;14.10;83.90
25214;DHT22;13160;51.834;4.706;2023-04-26T12:34:18;14.10;82.90
25214;DHT22;13160;51.834;4.706;2023-04-26T12:36:46;14.20;82.80
25214;DHT22;13160;51.834;4.706;2023-04-26T12:39:15;14.20;82.70
25214;DHT22;13160;51.834;4.706;2023-04-26T12:41:44;14.20;82.00
25214;DHT22;13160;51.834;4.706;2023-04-26T12:44:14;14.20;81.60
25214;DHT22;13160;51.834;4.706;2023-04-26T12:46:48;14.10;82.10
25214;DHT22;13160;51.834;4.706;2023-04-26T12:49:17;13.90;82.40
25214;DHT22;13160;51.834;4.706;2023-04-26T12:51:45;13.80;82.60
25214;DHT22;13160;51.834;4.706;2023-04-26T12:54:14;13.70;82.60
25214;DHT22;13160;51.834;4.706;2023-04-26T12:56:42;13.60;82.80
25214;DHT22;13160;51.834;4.706;2023-04-26T12:59:11;13.50;83.60
25214;DHT22;13160;51.834;4.706;2023-04-26T13:01:41;13.40;83.80
25214;DHT22;13160;51.834;4.706;2023-04-26T13:04:09;13.30;84.30
25214;DHT22;13160;51.834;4.706;2023-04-26T13:06:38;13.20;84.10
25214;DHT22;13160;51.834;4.706;2023-04-26T13:09:07;13.20;84.20
25214;DHT22;13160;51.834;4.706;2023-04-26T13:11:38;13.10;84.00
25214;DHT22;13160;51.834;4.706;2023-04-26T13:14:06;13.10;84.00
25214;DHT22;13160;51.834;4.706;2023-04-26T13:16:35;13.10;84.00
25214;DHT22;13160;51.834;4.706;2023-04-26T13:19:09;13.00;84.00
25214;DHT22;13160;51.834;4.706;2023-04-26T13:21:38;13.00;83.70
25214;DHT22;13160;51.834;4.706;2023-04-26T13:24:07;13.00;83.60
25214;DHT22;13160;51.834;4.706;2023-04-26T13:26:36;13.00;83.40
25214;DHT22;13160;51.834;4.706;2023-04-26T13:29:04;13.00;83.30
25214;DHT22;13160;51.834;4.706;2023-04-26T13:31:33;13.00;83.60
25214;DHT22;13160;51.834;4.706;2023-04-26T13:34:03;13.00;83.80
25214;DHT22;13160;51.834;4.706;2023-04-26T13:36:34;13.00;83.80
25214;DHT22;13160;51.834;4.706;2023-04-26T13:39:02;13.00;83.90
25214;DHT22;13160;51.834;4.706;2023-04-26T13:41:33;13.10;83.90
25214;DHT22;13160;51.834;4.706;2023-04-26T13:44:02;13.10;84.00
25214;DHT22;13160;51.834;4.706;2023-04-26T13:46:31;13.20;83.70
25214;DHT22;13160;51.834;4.706;2023-04-26T13:48:59;13.20;83.80
25214;DHT22;13160;51.834;4.706;2023-04-26T13:51:28;13.20;84.00
25214;DHT22;13160;51.834;4.706;2023-04-26T13:53:59;13.30;84.00
25214;DHT22;13160;51.834;4.706;2023-04-26T13:56:28;13.30;83.60
25214;DHT22;13160;51.834;4.706;2023-04-26T13:58:57;13.30;83.40
25214;DHT22;13160;51.834;4.706;2023-04-26T14:01:26;13.30;83.30
25214;DHT22;13160;51.834;4.706;2023-04-26T14:03:54;13.30;83.30
25214;DHT22;13160;51.834;4.706;2023-04-26T14:06:24;13.20;82.90
25214;DHT22;13160;51.834;4.706;2023-04-26T14:08:52;13.20;83.30
25214;DHT22;13160;51.834;4.706;2023-04-26T14:11:22;13.00;83.70
25214;DHT22;13160;51.834;4.706;2023-04-26T14:13:51;13.00;84.20
25214;DHT22;13160;51.834;4.706;2023-04-26T14:16:22;12.90;84.90
25214;DHT22;13160;51.834;4.706;2023-04-26T14:18:50;12.90;85.40
25214;DHT22;13160;51.834;4.706;2023-04-26T14:21:19;12.80;85.30
25214;DHT22;13160;51.834;4.706;2023-04-26T14:23:47;12.80;85.60
25214;DHT22;13160;51.834;4.706;2023-04-26T14:26:16;12.80;85.70
25214;DHT22;13160;51.834;4.706;2023-04-26T14:28:47;12.80;85.40
25214;DHT22;13160;51.834;4.706;2023-04-26T14:31:16;12.80;85.30
25214;DHT22;13160;51.834;4.706;2023-04-26T14:33:48;12.80;84.90
25214;DHT22;13160;51.834;4.706;2023-04-26T14:36:17;12.80;84.60
25214;DHT22;13160;51.834;4.706;2023-04-26T14:38:48;12.90;84.30
25214;DHT22;13160;51.834;4.706;2023-04-26T14:41:17;12.90;84.30
25214;DHT22;13160;51.834;4.706;2023-04-26T14:43:48;13.10;84.30
25214;DHT22;13160;51.834;4.706;2023-04-26T14:46:17;13.20;84.00
25214;DHT22;13160;51.834;4.706;2023-04-26T14:48:52;13.30;83.80
25214;DHT22;13160;51.834;4.706;2023-04-26T14:51:21;13.40;83.90
25214;DHT22;13160;51.834;4.706;2023-04-26T14:53:50;13.50;83.70
25214;DHT22;13160;51.834;4.706;2023-04-26T14:56:18;13.60;83.20
25214;DHT22;13160;51.834;4.706;2023-04-26T14:58:48;13.60;83.00
25214;DHT22;13160;51.834;4.706;2023-04-26T15:01:16;13.60;82.80
25214;DHT22;13160;51.834;4.706;2023-04-26T15:03:45;13.70;82.50
25214;DHT22;13160;51.834;4.706;2023-04-26T15:06:14;13.70;82.10
25214;DHT22;13160;51.834;4.706;2023-04-26T15:08:47;13.80;81.70
25214;DHT22;13160;51.834;4.706;2023-04-26T15:11:21;13.80;81.70
25214;DHT22;13160;51.834;4.706;2023-04-26T15:13:51;13.80;82.00
25214;DHT22;13160;51.834;4.706;2023-04-26T15:16:20;13.80;81.50
25214;DHT22;13160;51.834;4.706;2023-04-26T15:18:48;13.70;81.10
25214;DHT22;13160;51.834;4.706;2023-04-26T15:21:17;13.70;81.00
25214;DHT22;13160;51.834;4.706;2023-04-26T15:23:46;13.70;81.30
25214;DHT22;13160;51.834;4.706;2023-04-26T15:26:15;13.70;81.40
25214;DHT22;13160;51.834;4.706;2023-04-26T15:28:47;13.60;82.00
25214;DHT22;13160;51.834;4.706;2023-04-26T15:31:17;13.60;81.40
25214;DHT22;13160;51.834;4.706;2023-04-26T15:33:47;13.70;81.60
25214;DHT22;13160;51.834;4.706;2023-04-26T15:36:16;13.60;80.90
25214;DHT22;13160;51.834;4.706;2023-04-26T15:38:48;13.60;80.90
25214;DHT22;13160;51.834;4.706;2023-04-26T15:41:19;13.50;80.70
25214;DHT22;13160;51.834;4.706;2023-04-26T15:43:52;13.50;80.60
25214;DHT22;13160;51.834;4.706;2023-04-26T15:46:25;13.50;81.40
25214;DHT22;13160;51.834;4.706;2023-04-26T15:48:54;13.40;81.60
25214;DHT22;13160;51.834;4.706;2023-04-26T15:51:22;13.40;81.70
25214;DHT22;13160;51.834;4.706;2023-04-26T15:53:53;13.40;82.10